sensor_id;sensor_type;location;lat;lon;timestamp;temperature;humidity
21678;DHT22;11000;50.360;7.582;2022-07-23T00:01:02;21.20;99.90
21678;DHT22;11000;50.360;7.582;2022-07-23T00:03:23;21.30;99.90
21678;DHT22;11000;50.360;7.582;2022-07-23T00:05:44;21.30;99.90
21678;DHT22;11000;50.360;7.582;2022-07-23T00:08:05;21.20;99.90
21678;DHT22;11000;50.360;7.582;2022-07-23T00:10:26;21.20;99.90
21678;DHT22;11000;50.360;7.582;2022-07-23T00:12:47;21.20;99.90
21678;DHT22;11000;50.360;7.582;2022-07-23T00:15:08;21.10;99.90
21678;DHT22;11000;50.360;7.582;2022-07-23T00:17:28;21.00;99.90
21678;DHT22;11000;50.360;7.582;2022-07-23T00:19:49;21.00;99.90
21678;DHT22;11000;50.360;7.582;2022-07-23T00:22:10;21.10;99.90
21678;DHT22;11000;50.360;7.582;2022-07-23T00:24:30;21.00;99.90
21678;DHT22;11000;50.360;7.582;2022-07-23T00:26:50;21.00;99.90
21678;DHT22;11000;50.360;7.582;2022-07-23T00:29:13;20.90;99.90
21678;DHT22;11000;50.360;7.582;2022-07-23T00:31:34;20.90;99.90
21678;DHT22;11000;50.360;7.582;2022-07-23T00:33:54;20.90;99.90
21678;DHT22;11000;50.360;7.582;2022-07-23T00:36:21;20.90;99.90
21678;DHT22;11000;50.360;7.582;2022-07-23T00:38:41;20.80;99.90
21678;DHT22;11000;50.360;7.582;2022-07-23T00:41:02;20.80;99.90
21678;DHT22;11000;50.360;7.582;2022-07-23T00:43:23;20.80;99.90
21678;DHT22;11000;50.360;7.582;2022-07-23T00:45:44;20.80;99.90
21678;DHT22;11000;50.360;7.582;2022-07-23T00:48:05;20.70;99.90
21678;DHT22;11000;50.360;7.582;2022-07-23T00:50:27;20.70;99.90
21678;DHT22;11000;50.360;7.582;2022-07-23T00:52:47;20.60;99.90
21678;DHT22;11000;50.360;7.582;2022-07-23T00:55:09;20.50;99.90
21678;DHT22;11000;50.360;7.582;2022-07-23T00:57:30;20.60;99.90
21678;DHT22;11000;50.360;7.582;2022-07-23T00:59:51;20.60;99.90
21678;DHT22;11000;50.360;7.582;2022-07-23T01:02:11;20.60;99.90
21678;DHT22;11000;50.360;7.582;2022-07-23T01:04:32;20.60;99.90
21678;DHT22;11000;50.360;7.582;2022-07-23T01:06:53;20.60;99.90
21678;DHT22;11000;50.360;7.582;2022-07-23T01:09:13;20.60;99.90
21678;DHT22;11000;50.360;7.582;2022-07-23T01:11:35;20.60;99.90
21678;DHT22;11000;50.360;7.582;2022-07-23T01:13:55;20.50;99.90
21678;DHT22;11000;50.360;7.582;2022-07-23T01:16:16;20.40;99.90
21678;DHT22;11000;50.360;7.582;2022-07-23T01:18:36;20.40;99.90
21678;DHT22;11000;50.360;7.582;2022-07-23T01:20:57;20.40;99.90
21678;DHT22;11000;50.360;7.582;2022-07-23T01:23:17;20.40;99.90
21678;DHT22;11000;50.360;7.582;2022-07-23T01:25:47;20.40;99.90
21678;DHT22;11000;50.360;7.582;2022-07-23T01:28:08;20.40;99.90
21678;DHT22;11000;50.360;7.582;2022-07-23T01:30:29;20.40;99.90
21678;DHT22;11000;50.360;7.582;2022-07-23T01:32:49;20.30;99.90
21678;DHT22;11000;50.360;7.582;2022-07-23T01:35:10;20.20;99.90
21678;DHT22;11000;50.360;7.582;2022-07-23T01:37:30;20.10;99.90
21678;DHT22;11000;50.360;7.582;2022-07-23T01:39:51;20.10;99.90
21678;DHT22;11000;50.360;7.582;2022-07-23T01:42:12;20.10;99.90
21678;DHT22;11000;50.360;7.582;2022-07-23T01:44:32;20.20;99.90
21678;DHT22;11000;50.360;7.582;2022-07-23T01:46:53;20.20;99.90
21678;DHT22;11000;50.360;7.582;2022-07-23T01:49:13;20.20;99.90
21678;DHT22;11000;50.360;7.582;2022-07-23T01:51:34;20.20;99.90
21678;DHT22;11000;50.360;7.582;2022-07-23T01:53:54;20.20;99.90
21678;DHT22;11000;50.360;7.582;2022-07-23T01:56:15;20.20;99.90
21678;DHT22;11000;50.360;7.582;2022-07-23T01:58:35;20.10;99.90
21678;DHT22;11000;50.360;7.582;2022-07-23T02:00:56;20.10;99.90
21678;DHT22;11000;50.360;7.582;2022-07-23T02:03:17;20.10;99.90
21678;DHT22;11000;50.360;7.582;2022-07-23T02:05:37;20.10;99.90
21678;DHT22;11000;50.360;7.582;2022-07-23T02:07:59;20.10;99.90
21678;DHT22;11000;50.360;7.582;2022-07-23T02:10:20;20.10;99.90
21678;DHT22;11000;50.360;7.582;2022-07-23T02:12:40;20.10;99.90
21678;DHT22;11000;50.360;7.582;2022-07-23T02:15:01;20.10;99.90
21678;DHT22;11000;50.360;7.582;2022-07-23T02:17:21;20.10;99.90
21678;DHT22;11000;50.360;7.582;2022-07-23T02:19:42;20.10;99.90
21678;DHT22;11000;50.360;7.582;2022-07-23T02:22:02;20.00;99.90
21678;DHT22;11000;50.360;7.582;2022-07-23T02:24:23;20.10;99.90
21678;DHT22;11000;50.360;7.582;2022-07-23T02:26:43;20.00;99.90
21678;DHT22;11000;50.360;7.582;2022-07-23T02:29:04;19.80;99.90
21678;DHT22;11000;50.360;7.582;2022-07-23T02:31:25;19.90;99.90
21678;DHT22;11000;50.360;7.582;2022-07-23T02:33:45;19.90;99.90
21678;DHT22;11000;50.360;7.582;2022-07-23T02:36:06;20.00;99.90
21678;DHT22;11000;50.360;7.582;2022-07-23T02:38:27;20.00;99.90
21678;DHT22;11000;50.360;7.582;2022-07-23T02:40:47;20.10;99.90
21678;DHT22;11000;50.360;7.582;2022-07-23T02:43:08;20.00;99.90
21678;DHT22;11000;50.360;7.582;2022-07-23T02:45:28;20.00;99.90
21678;DHT22;11000;50.360;7.582;2022-07-23T02:47:49;20.00;99.90
21678;DHT22;11000;50.360;7.582;2022-07-23T02:50:09;20.00;99.90
21678;DHT22;11000;50.360;7.582;2022-07-23T02:52:30;20.00;99.90
21678;DHT22;11000;50.360;7.582;2022-07-23T02:54:51;19.90;99.90
21678;DHT22;11000;50.360;7.582;2022-07-23T02:57:11;20.00;99.90
21678;DHT22;11000;50.360;7.582;2022-07-23T02:59:32;19.90;99.90
21678;DHT22;11000;50.360;7.582;2022-07-23T03:01:52;19.90;99.90
21678;DHT22;11000;50.360;7.582;2022-07-23T03:04:13;19.90;99.90
21678;DHT22;11000;50.360;7.582;2022-07-23T03:06:34;19.90;99.90
21678;DHT22;11000;50.360;7.582;2022-07-23T03:08:54;19.90;99.90
21678;DHT22;11000;50.360;7.582;2022-07-23T03:11:15;19.90;99.90
21678;DHT22;11000;50.360;7.582;2022-07-23T03:13:35;19.90;99.90
21678;DHT22;11000;50.360;7.582;2022-07-23T03:15:56;19.90;99.90
21678;DHT22;11000;50.360;7.582;2022-07-23T03:18:16;19.80;99.90
21678;DHT22;11000;50.360;7.582;2022-07-23T03:20:37;19.80;99.90
21678;DHT22;11000;50.360;7.582;2022-07-23T03:22:57;19.80;99.90
21678;DHT22;11000;50.360;7.582;2022-07-23T03:25:18;19.80;99.90
21678;DHT22;11000;50.360;7.582;2022-07-23T03:27:38;19.80;99.90
21678;DHT22;11000;50.360;7.582;2022-07-23T03:30:00;19.80;99.90
21678;DHT22;11000;50.360;7.582;2022-07-23T03:32:21;19.80;99.90
21678;DHT22;11000;50.360;7.582;2022-07-23T03:34:42;19.80;99.90
21678;DHT22;11000;50.360;7.582;2022-07-23T03:37:03;19.80;99.90
21678;DHT22;11000;50.360;7.582;2022-07-23T03:39:23;19.80;99.90
21678;DHT22;11000;50.360;7.582;2022-07-23T03:41:44;19.70;99.90
21678;DHT22;11000;50.360;7.582;2022-07-23T03:44:04;19.60;99.90
21678;DHT22;11000;50.360;7.582;2022-07-23T03:46:25;19.60;99.90
21678;DHT22;11000;50.360;7.582;2022-07-23T03:48:46;19.60;99.90
21678;DHT22;11000;50.360;7.582;2022-07-23T03:51:06;19.50;99.90
21678;DHT22;11000;50.360;7.582;2022-07-23T03:53:28;19.40;99.90
21678;DHT22;11000;50.360;7.582;2022-07-23T03:55:48;19.30;99.90
21678;DHT22;11000;50.360;7.582;2022-07-23T03:58:09;19.30;99.90
21678;DHT22;11000;50.360;7.582;2022-07-23T04:00:29;19.30;99.90
21678;DHT22;11000;50.360;7.582;2022-07-23T04:02:50;19.30;99.90
21678;DHT22;11000;50.360;7.582;2022-07-23T04:05:10;19.30;99.90
21678;DHT22;11000;50.360;7.582;2022-07-23T04:07:31;19.30;99.90
21678;DHT22;11000;50.360;7.582;2022-07-23T04:09:51;19.20;99.90
21678;DHT22;11000;50.360;7.582;2022-07-23T04:12:12;19.10;99.90
21678;DHT22;11000;50.360;7.582;2022-07-23T04:14:33;19.20;99.90
21678;DHT22;11000;50.360;7.582;2022-07-23T04:16:54;19.10;99.90
21678;DHT22;11000;50.360;7.582;2022-07-23T04:19:14;19.10;99.90
21678;DHT22;11000;50.360;7.582;2022-07-23T04:21:34;19.20;99.90
21678;DHT22;11000;50.360;7.582;2022-07-23T04:23:55;19.20;99.90
21678;DHT22;11000;50.360;7.582;2022-07-23T04:26:16;19.20;99.90
21678;DHT22;11000;50.360;7.582;2022-07-23T04:28:36;19.20;99.90
21678;DHT22;11000;50.360;7.582;2022-07-23T04:30:57;19.20;99.90
21678;DHT22;11000;50.360;7.582;2022-07-23T04:33:18;19.20;99.90
21678;DHT22;11000;50.360;7.582;2022-07-23T04:35:39;19.10;99.90
21678;DHT22;11000;50.360;7.582;2022-07-23T04:38:00;19.10;99.90
21678;DHT22;11000;50.360;7.582;2022-07-23T04:40:20;19.10;99.90
21678;DHT22;11000;50.360;7.582;2022-07-23T04:42:41;19.10;99.90
21678;DHT22;11000;50.360;7.582;2022-07-23T04:45:02;19.10;99.90
21678;DHT22;11000;50.360;7.582;2022-07-23T04:47:24;19.20;99.90
21678;DHT22;11000;50.360;7.582;2022-07-23T04:49:44;19.20;99.90
21678;DHT22;11000;50.360;7.582;2022-07-23T04:52:05;19.10;99.90
21678;DHT22;11000;50.360;7.582;2022-07-23T04:54:25;19.10;99.90
21678;DHT22;11000;50.360;7.582;2022-07-23T04:56:46;19.00;99.90
21678;DHT22;11000;50.360;7.582;2022-07-23T04:59:06;19.00;99.90
21678;DHT22;11000;50.360;7.582;2022-07-23T05:01:26;19.10;99.90
21678;DHT22;11000;50.360;7.582;2022-07-23T05:03:47;19.10;99.90
21678;DHT22;11000;50.360;7.582;2022-07-23T05:06:08;19.10;99.90
21678;DHT22;11000;50.360;7.582;2022-07-23T05:08:29;19.20;99.90
21678;DHT22;11000;50.360;7.582;2022-07-23T05:10:50;19.20;99.90
21678;DHT22;11000;50.360;7.582;2022-07-23T05:13:10;19.20;99.90
21678;DHT22;11000;50.360;7.582;2022-07-23T05:15:31;19.20;99.90
21678;DHT22;11000;50.360;7.582;2022-07-23T05:17:51;19.10;99.90
21678;DHT22;11000;50.360;7.582;2022-07-23T05:20:12;19.20;99.90
21678;DHT22;11000;50.360;7.582;2022-07-23T05:22:33;19.30;99.90
21678;DHT22;11000;50.360;7.582;2022-07-23T05:24:54;19.30;99.90
21678;DHT22;11000;50.360;7.582;2022-07-23T05:27:14;19.30;99.90
21678;DHT22;11000;50.360;7.582;2022-07-23T05:29:35;19.50;99.90
21678;DHT22;11000;50.360;7.582;2022-07-23T05:31:55;19.70;99.90
21678;DHT22;11000;50.360;7.582;2022-07-23T05:34:16;19.80;99.90
21678;DHT22;11000;50.360;7.582;2022-07-23T05:36:36;19.90;99.90
21678;DHT22;11000;50.360;7.582;2022-07-23T05:38:57;20.00;99.90
21678;DHT22;11000;50.360;7.582;2022-07-23T05:41:17;20.30;99.90
21678;DHT22;11000;50.360;7.582;2022-07-23T05:43:38;20.40;99.90
21678;DHT22;11000;50.360;7.582;2022-07-23T05:45:58;20.70;99.90
21678;DHT22;11000;50.360;7.582;2022-07-23T05:48:19;20.80;99.90
21678;DHT22;11000;50.360;7.582;2022-07-23T05:50:40;20.90;99.90
21678;DHT22;11000;50.360;7.582;2022-07-23T05:53:01;20.70;99.90
21678;DHT22;11000;50.360;7.582;2022-07-23T05:55:21;20.80;99.90
21678;DHT22;11000;50.360;7.582;2022-07-23T05:57:42;21.10;99.90
21678;DHT22;11000;50.360;7.582;2022-07-23T06:00:04;21.10;99.90
21678;DHT22;11000;50.360;7.582;2022-07-23T06:02:25;21.40;99.90
21678;DHT22;11000;50.360;7.582;2022-07-23T06:04:45;21.30;99.90
21678;DHT22;11000;50.360;7.582;2022-07-23T06:07:06;21.40;99.90
21678;DHT22;11000;50.360;7.582;2022-07-23T06:09:26;21.40;99.90
21678;DHT22;11000;50.360;7.582;2022-07-23T06:11:47;21.40;99.90
21678;DHT22;11000;50.360;7.582;2022-07-23T06:14:07;21.30;99.90
21678;DHT22;11000;50.360;7.582;2022-07-23T06:16:28;21.30;99.90
21678;DHT22;11000;50.360;7.582;2022-07-23T06:18:49;21.40;99.90
21678;DHT22;11000;50.360;7.582;2022-07-23T06:21:09;21.80;99.90
21678;DHT22;11000;50.360;7.582;2022-07-23T06:23:29;22.20;99.90
21678;DHT22;11000;50.360;7.582;2022-07-23T06:25:50;22.70;99.90
21678;DHT22;11000;50.360;7.582;2022-07-23T06:28:10;23.10;99.90
21678;DHT22;11000;50.360;7.582;2022-07-23T06:30:31;23.30;99.90
21678;DHT22;11000;50.360;7.582;2022-07-23T06:32:52;23.30;99.90
21678;DHT22;11000;50.360;7.582;2022-07-23T06:35:12;23.00;99.90
21678;DHT22;11000;50.360;7.582;2022-07-23T06:37:33;22.80;99.90
21678;DHT22;11000;50.360;7.582;2022-07-23T06:39:53;22.70;99.90
21678;DHT22;11000;50.360;7.582;2022-07-23T06:42:14;22.80;99.90
21678;DHT22;11000;50.360;7.582;2022-07-23T06:44:35;23.00;99.90
21678;DHT22;11000;50.360;7.582;2022-07-23T06:46:55;22.70;99.90
21678;DHT22;11000;50.360;7.582;2022-07-23T06:49:16;23.10;99.90
21678;DHT22;11000;50.360;7.582;2022-07-23T06:51:37;23.20;99.90
21678;DHT22;11000;50.360;7.582;2022-07-23T06:53:57;23.20;99.90
21678;DHT22;11000;50.360;7.582;2022-07-23T06:56:18;23.40;99.90
21678;DHT22;11000;50.360;7.582;2022-07-23T06:58:39;23.50;99.90
21678;DHT22;11000;50.360;7.582;2022-07-23T07:01:00;23.40;99.90
21678;DHT22;11000;50.360;7.582;2022-07-23T07:03:20;23.20;99.90
21678;DHT22;11000;50.360;7.582;2022-07-23T07:05:41;23.20;99.90
21678;DHT22;11000;50.360;7.582;2022-07-23T07:08:01;23.20;99.90
21678;DHT22;11000;50.360;7.582;2022-07-23T07:10:22;23.30;99.90
21678;DHT22;11000;50.360;7.582;2022-07-23T07:12:43;23.70;99.90
21678;DHT22;11000;50.360;7.582;2022-07-23T07:15:04;23.90;99.90
21678;DHT22;11000;50.360;7.582;2022-07-23T07:17:24;23.90;99.90
21678;DHT22;11000;50.360;7.582;2022-07-23T07:19:45;24.10;99.90
21678;DHT22;11000;50.360;7.582;2022-07-23T07:22:06;24.30;99.90
21678;DHT22;11000;50.360;7.582;2022-07-23T07:24:26;23.90;99.90
21678;DHT22;11000;50.360;7.582;2022-07-23T07:26:47;23.30;99.90
21678;DHT22;11000;50.360;7.582;2022-07-23T07:29:08;23.40;99.90
21678;DHT22;11000;50.360;7.582;2022-07-23T07:31:28;24.00;99.90
21678;DHT22;11000;50.360;7.582;2022-07-23T07:33:49;24.60;99.90
21678;DHT22;11000;50.360;7.582;2022-07-23T07:36:10;24.50;99.90
21678;DHT22;11000;50.360;7.582;2022-07-23T07:38:30;25.20;99.90
21678;DHT22;11000;50.360;7.582;2022-07-23T07:40:51;25.60;99.90
21678;DHT22;11000;50.360;7.582;2022-07-23T07:43:12;25.50;99.90
21678;DHT22;11000;50.360;7.582;2022-07-23T07:45:33;25.80;99.90
21678;DHT22;11000;50.360;7.582;2022-07-23T07:47:54;25.60;99.90
21678;DHT22;11000;50.360;7.582;2022-07-23T07:50:15;25.70;99.90
21678;DHT22;11000;50.360;7.582;2022-07-23T07:52:36;26.10;99.90
21678;DHT22;11000;50.360;7.582;2022-07-23T07:54:56;26.60;99.90
21678;DHT22;11000;50.360;7.582;2022-07-23T07:57:17;26.90;99.90
21678;DHT22;11000;50.360;7.582;2022-07-23T07:59:37;26.20;99.90
21678;DHT22;11000;50.360;7.582;2022-07-23T08:01:58;26.00;99.90
21678;DHT22;11000;50.360;7.582;2022-07-23T08:04:18;26.60;99.90
21678;DHT22;11000;50.360;7.582;2022-07-23T08:06:39;26.80;99.90
21678;DHT22;11000;50.360;7.582;2022-07-23T08:09:00;27.20;99.90
21678;DHT22;11000;50.360;7.582;2022-07-23T08:11:20;26.40;99.90
21678;DHT22;11000;50.360;7.582;2022-07-23T08:13:41;26.70;99.90
21678;DHT22;11000;50.360;7.582;2022-07-23T08:16:01;27.40;99.90
21678;DHT22;11000;50.360;7.582;2022-07-23T08:18:22;27.10;99.90
21678;DHT22;11000;50.360;7.582;2022-07-23T08:20:42;27.00;99.90
21678;DHT22;11000;50.360;7.582;2022-07-23T08:23:06;26.10;99.90
21678;DHT22;11000;50.360;7.582;2022-07-23T08:25:31;26.50;99.90
21678;DHT22;11000;50.360;7.582;2022-07-23T08:27:53;26.60;99.90
21678;DHT22;11000;50.360;7.582;2022-07-23T08:30:14;26.90;99.90
21678;DHT22;11000;50.360;7.582;2022-07-23T08:32:48;27.10;99.90
21678;DHT22;11000;50.360;7.582;2022-07-23T08:35:09;26.40;99.90
21678;DHT22;11000;50.360;7.582;2022-07-23T08:37:29;25.40;99.90
21678;DHT22;11000;50.360;7.582;2022-07-23T08:39:49;25.00;99.90
21678;DHT22;11000;50.360;7.582;2022-07-23T08:42:11;24.80;99.90
21678;DHT22;11000;50.360;7.582;2022-07-23T08:44:36;24.50;99.90
21678;DHT22;11000;50.360;7.582;2022-07-23T08:46:57;24.30;99.90
21678;DHT22;11000;50.360;7.582;2022-07-23T08:49:18;24.20;99.90
21678;DHT22;11000;50.360;7.582;2022-07-23T08:51:38;24.10;99.90
21678;DHT22;11000;50.360;7.582;2022-07-23T08:54:00;24.00;99.90
21678;DHT22;11000;50.360;7.582;2022-07-23T08:56:21;24.60;99.90
21678;DHT22;11000;50.360;7.582;2022-07-23T08:58:42;24.70;99.90
21678;DHT22;11000;50.360;7.582;2022-07-23T09:01:03;24.50;99.90
21678;DHT22;11000;50.360;7.582;2022-07-23T09:03:33;25.20;99.90
21678;DHT22;11000;50.360;7.582;2022-07-23T09:05:54;25.10;99.90
21678;DHT22;11000;50.360;7.582;2022-07-23T09:08:21;25.40;99.90
21678;DHT22;11000;50.360;7.582;2022-07-23T09:11:03;24.80;99.90
21678;DHT22;11000;50.360;7.582;2022-07-23T09:15:50;25.70;99.90
21678;DHT22;11000;50.360;7.582;2022-07-23T09:18:15;26.40;99.90
21678;DHT22;11000;50.360;7.582;2022-07-23T09:20:36;27.30;99.90
21678;DHT22;11000;50.360;7.582;2022-07-23T09:22:57;26.90;99.90
21678;DHT22;11000;50.360;7.582;2022-07-23T09:25:19;26.60;99.90
21678;DHT22;11000;50.360;7.582;2022-07-23T09:27:58;26.80;99.90
21678;DHT22;11000;50.360;7.582;2022-07-23T09:30:24;27.10;99.90
21678;DHT22;11000;50.360;7.582;2022-07-23T09:33:10;26.90;99.90
21678;DHT22;11000;50.360;7.582;2022-07-23T09:35:54;27.30;99.50
21678;DHT22;11000;50.360;7.582;2022-07-23T09:38:15;27.40;99.50
21678;DHT22;11000;50.360;7.582;2022-07-23T09:40:36;26.70;99.90
21678;DHT22;11000;50.360;7.582;2022-07-23T09:42:56;27.30;97.70
21678;DHT22;11000;50.360;7.582;2022-07-23T09:45:17;27.60;96.00
21678;DHT22;11000;50.360;7.582;2022-07-23T09:47:38;27.50;95.80
21678;DHT22;11000;50.360;7.582;2022-07-23T09:50:06;27.60;95.50
21678;DHT22;11000;50.360;7.582;2022-07-23T09:52:30;27.30;95.80
21678;DHT22;11000;50.360;7.582;2022-07-23T09:54:58;27.90;94.50
21678;DHT22;11000;50.360;7.582;2022-07-23T09:57:19;28.40;92.20
21678;DHT22;11000;50.360;7.582;2022-07-23T09:59:42;28.70;89.30
21678;DHT22;11000;50.360;7.582;2022-07-23T10:02:06;28.90;90.70
21678;DHT22;11000;50.360;7.582;2022-07-23T10:04:29;29.30;85.40
21678;DHT22;11000;50.360;7.582;2022-07-23T10:06:53;28.50;82.80
21678;DHT22;11000;50.360;7.582;2022-07-23T10:09:16;28.00;90.50
21678;DHT22;11000;50.360;7.582;2022-07-23T10:11:41;28.10;91.70
21678;DHT22;11000;50.360;7.582;2022-07-23T10:14:03;28.60;88.20
21678;DHT22;11000;50.360;7.582;2022-07-23T10:16:25;29.10;83.90
21678;DHT22;11000;50.360;7.582;2022-07-23T10:18:47;29.80;80.80
21678;DHT22;11000;50.360;7.582;2022-07-23T10:21:08;29.20;78.60
21678;DHT22;11000;50.360;7.582;2022-07-23T10:26:01;28.10;86.20
21678;DHT22;11000;50.360;7.582;2022-07-23T10:31:17;29.30;79.70
21678;DHT22;11000;50.360;7.582;2022-07-23T10:36:20;29.70;73.90
21678;DHT22;11000;50.360;7.582;2022-07-23T10:38:52;29.70;76.50
21678;DHT22;11000;50.360;7.582;2022-07-23T10:41:39;29.70;74.90
21678;DHT22;11000;50.360;7.582;2022-07-23T10:44:08;29.90;73.60
21678;DHT22;11000;50.360;7.582;2022-07-23T10:46:29;30.40;71.00
21678;DHT22;11000;50.360;7.582;2022-07-23T10:49:29;30.50;69.10
21678;DHT22;11000;50.360;7.582;2022-07-23T10:52:26;29.20;72.90
21678;DHT22;11000;50.360;7.582;2022-07-23T10:57:28;28.20;78.60
21678;DHT22;11000;50.360;7.582;2022-07-23T11:02:23;28.20;79.30
21678;DHT22;11000;50.360;7.582;2022-07-23T11:04:51;28.40;75.10
21678;DHT22;11000;50.360;7.582;2022-07-23T11:07:12;28.00;78.00
21678;DHT22;11000;50.360;7.582;2022-07-23T11:09:41;28.10;75.70
21678;DHT22;11000;50.360;7.582;2022-07-23T11:12:35;28.50;76.40
21678;DHT22;11000;50.360;7.582;2022-07-23T11:15:10;28.80;72.00
21678;DHT22;11000;50.360;7.582;2022-07-23T11:25:05;29.80;67.90
21678;DHT22;11000;50.360;7.582;2022-07-23T11:30:03;29.80;69.20
21678;DHT22;11000;50.360;7.582;2022-07-23T11:32:29;29.00;69.30
21678;DHT22;11000;50.360;7.582;2022-07-23T11:34:52;29.80;70.70
21678;DHT22;11000;50.360;7.582;2022-07-23T11:37:32;30.40;68.60
21678;DHT22;11000;50.360;7.582;2022-07-23T11:39:57;30.20;71.40
21678;DHT22;11000;50.360;7.582;2022-07-23T11:42:18;30.10;67.40
21678;DHT22;11000;50.360;7.582;2022-07-23T11:44:39;30.40;67.30
21678;DHT22;11000;50.360;7.582;2022-07-23T11:47:05;30.20;67.30
21678;DHT22;11000;50.360;7.582;2022-07-23T11:49:27;29.10;69.90
21678;DHT22;11000;50.360;7.582;2022-07-23T11:52:06;28.80;71.50
21678;DHT22;11000;50.360;7.582;2022-07-23T11:54:32;28.60;73.90
21678;DHT22;11000;50.360;7.582;2022-07-23T11:56:57;28.70;75.40
21678;DHT22;11000;50.360;7.582;2022-07-23T11:59:18;29.00;77.00
21678;DHT22;11000;50.360;7.582;2022-07-23T12:02:00;29.80;73.30
21678;DHT22;11000;50.360;7.582;2022-07-23T12:04:20;30.40;70.50
21678;DHT22;11000;50.360;7.582;2022-07-23T12:06:41;30.40;69.50
21678;DHT22;11000;50.360;7.582;2022-07-23T12:09:02;29.30;70.70
21678;DHT22;11000;50.360;7.582;2022-07-23T12:11:22;29.60;72.30
21678;DHT22;11000;50.360;7.582;2022-07-23T12:13:55;29.90;70.70
21678;DHT22;11000;50.360;7.582;2022-07-23T12:16:16;30.40;69.80
21678;DHT22;11000;50.360;7.582;2022-07-23T12:18:38;30.40;67.90
21678;DHT22;11000;50.360;7.582;2022-07-23T12:21:03;30.40;68.10
21678;DHT22;11000;50.360;7.582;2022-07-23T12:23:28;30.10;67.40
21678;DHT22;11000;50.360;7.582;2022-07-23T12:25:50;30.80;67.60
21678;DHT22;11000;50.360;7.582;2022-07-23T12:28:17;30.70;65.60
21678;DHT22;11000;50.360;7.582;2022-07-23T12:30:41;30.30;70.20
21678;DHT22;11000;50.360;7.582;2022-07-23T12:33:07;30.90;66.90
21678;DHT22;11000;50.360;7.582;2022-07-23T12:35:37;30.90;66.40
21678;DHT22;11000;50.360;7.582;2022-07-23T12:38:02;31.30;65.90
21678;DHT22;11000;50.360;7.582;2022-07-23T12:40:35;31.70;63.60
21678;DHT22;11000;50.360;7.582;2022-07-23T12:43:03;31.00;64.00
21678;DHT22;11000;50.360;7.582;2022-07-23T12:45:26;30.80;66.60
21678;DHT22;11000;50.360;7.582;2022-07-23T12:48:04;31.10;66.80
21678;DHT22;11000;50.360;7.582;2022-07-23T12:53:09;31.70;64.30
21678;DHT22;11000;50.360;7.582;2022-07-23T12:55:30;30.80;65.80
21678;DHT22;11000;50.360;7.582;2022-07-23T12:57:51;31.30;65.90
21678;DHT22;11000;50.360;7.582;2022-07-23T13:00:12;31.10;64.10
21678;DHT22;11000;50.360;7.582;2022-07-23T13:02:45;30.20;68.30
21678;DHT22;11000;50.360;7.582;2022-07-23T13:05:06;29.70;67.90
21678;DHT22;11000;50.360;7.582;2022-07-23T13:07:27;29.30;69.70
21678;DHT22;11000;50.360;7.582;2022-07-23T13:09:48;29.00;71.20
21678;DHT22;11000;50.360;7.582;2022-07-23T13:12:09;30.00;68.60
21678;DHT22;11000;50.360;7.582;2022-07-23T13:14:30;30.80;66.10
21678;DHT22;11000;50.360;7.582;2022-07-23T13:16:52;30.90;64.50
21678;DHT22;11000;50.360;7.582;2022-07-23T13:19:18;31.30;63.80
21678;DHT22;11000;50.360;7.582;2022-07-23T13:21:40;30.70;62.70
21678;DHT22;11000;50.360;7.582;2022-07-23T13:24:01;29.90;67.20
21678;DHT22;11000;50.360;7.582;2022-07-23T13:26:22;30.30;63.70
21678;DHT22;11000;50.360;7.582;2022-07-23T13:28:43;29.90;64.60
21678;DHT22;11000;50.360;7.582;2022-07-23T13:31:04;30.70;63.30
21678;DHT22;11000;50.360;7.582;2022-07-23T13:33:25;31.00;60.90
21678;DHT22;11000;50.360;7.582;2022-07-23T13:35:46;31.00;59.80
21678;DHT22;11000;50.360;7.582;2022-07-23T13:38:07;30.60;61.60
21678;DHT22;11000;50.360;7.582;2022-07-23T13:40:29;31.10;62.50
21678;DHT22;11000;50.360;7.582;2022-07-23T13:42:50;31.60;59.60
21678;DHT22;11000;50.360;7.582;2022-07-23T13:45:11;31.80;58.70
21678;DHT22;11000;50.360;7.582;2022-07-23T13:47:32;32.30;57.80
21678;DHT22;11000;50.360;7.582;2022-07-23T13:49:52;32.10;57.80
21678;DHT22;11000;50.360;7.582;2022-07-23T13:52:14;32.20;57.40
21678;DHT22;11000;50.360;7.582;2022-07-23T13:54:36;32.20;57.10
21678;DHT22;11000;50.360;7.582;2022-07-23T13:56:56;32.50;56.30
21678;DHT22;11000;50.360;7.582;2022-07-23T13:59:18;32.60;56.70
21678;DHT22;11000;50.360;7.582;2022-07-23T14:01:39;32.60;55.10
21678;DHT22;11000;50.360;7.582;2022-07-23T14:03:59;32.50;54.70
21678;DHT22;11000;50.360;7.582;2022-07-23T14:06:20;32.10;56.10
21678;DHT22;11000;50.360;7.582;2022-07-23T14:08:41;32.20;55.10
21678;DHT22;11000;50.360;7.582;2022-07-23T14:11:02;32.20;53.90
21678;DHT22;11000;50.360;7.582;2022-07-23T14:13:22;32.20;54.70
21678;DHT22;11000;50.360;7.582;2022-07-23T14:15:43;32.20;54.40
21678;DHT22;11000;50.360;7.582;2022-07-23T14:18:04;32.40;54.10
21678;DHT22;11000;50.360;7.582;2022-07-23T14:20:25;32.10;55.00
21678;DHT22;11000;50.360;7.582;2022-07-23T14:22:45;32.30;55.00
21678;DHT22;11000;50.360;7.582;2022-07-23T14:25:07;31.90;54.30
21678;DHT22;11000;50.360;7.582;2022-07-23T14:27:28;31.50;54.40
21678;DHT22;11000;50.360;7.582;2022-07-23T14:29:48;31.20;56.50
21678;DHT22;11000;50.360;7.582;2022-07-23T14:32:09;31.40;55.80
21678;DHT22;11000;50.360;7.582;2022-07-23T14:34:30;31.10;56.50
21678;DHT22;11000;50.360;7.582;2022-07-23T14:36:51;30.70;57.10
21678;DHT22;11000;50.360;7.582;2022-07-23T14:39:12;30.30;57.10
21678;DHT22;11000;50.360;7.582;2022-07-23T14:41:36;30.10;58.10
21678;DHT22;11000;50.360;7.582;2022-07-23T14:43:58;29.60;57.90
21678;DHT22;11000;50.360;7.582;2022-07-23T14:46:19;29.30;59.50
21678;DHT22;11000;50.360;7.582;2022-07-23T14:48:40;29.00;59.90
21678;DHT22;11000;50.360;7.582;2022-07-23T14:51:00;29.00;61.80
21678;DHT22;11000;50.360;7.582;2022-07-23T14:53:21;29.50;61.10
21678;DHT22;11000;50.360;7.582;2022-07-23T14:55:42;29.90;60.90
21678;DHT22;11000;50.360;7.582;2022-07-23T14:58:02;29.70;58.70
21678;DHT22;11000;50.360;7.582;2022-07-23T15:00:23;29.60;59.80
21678;DHT22;11000;50.360;7.582;2022-07-23T15:02:43;30.20;59.20
21678;DHT22;11000;50.360;7.582;2022-07-23T15:05:04;29.70;58.80
21678;DHT22;11000;50.360;7.582;2022-07-23T15:07:24;29.80;59.80
21678;DHT22;11000;50.360;7.582;2022-07-23T15:09:45;29.70;58.20
21678;DHT22;11000;50.360;7.582;2022-07-23T15:12:06;29.80;57.90
21678;DHT22;11000;50.360;7.582;2022-07-23T15:14:27;30.00;58.20
21678;DHT22;11000;50.360;7.582;2022-07-23T15:16:47;29.60;60.00
21678;DHT22;11000;50.360;7.582;2022-07-23T15:19:08;30.10;59.80
21678;DHT22;11000;50.360;7.582;2022-07-23T15:21:29;29.60;60.00
21678;DHT22;11000;50.360;7.582;2022-07-23T15:23:51;29.80;59.80
21678;DHT22;11000;50.360;7.582;2022-07-23T15:26:13;29.70;60.90